Time,TemperatureF,DewpointF,PressureIn,WindDirection,WindDirectionDegrees,WindSpeedMPH,WindSpeedGustMPH,Humidity,HourlyPrecipIn,Conditions,Clouds,dailyrainin,SoftwareType,DateUTC
2013-06-07 00:01:00,68.2,66.4,29.81,SSW,213,0.0,0.0,94,0.00,RA,,0.00,WeatherDisplay:10.37,2013-06-07 04:01:00,
2013-06-07 00:06:00,68.4,66.3,29.81,SSW,213,0.0,0.0,93,0.00,RA,,0.00,WeatherDisplay:10.37,2013-06-07 04:06:00,
2013-06-07 00:11:00,68.1,66.3,29.81,SSW,213,0.0,0.0,94,0.00,CLR,,0.00,WeatherDisplay:10.37,2013-06-07 04:11:00,
2013-06-07 00:16:00,68.1,66.3,29.80,SSW,213,0.0,0.0,94,0.00,CLR,,0.00,WeatherDisplay:10.37,2013-06-07 04:16:00,
2013-06-07 00:21:00,68.4,66.3,29.81,SSW,213,0.0,0.0,93,0.00,CLR,,0.00,WeatherDisplay:10.37,2013-06-07 04:21:00,
2013-06-07 00:26:00,68.4,66.3,29.81,SSW,213,0.0,0.0,93,0.00,CLR,,0.00,WeatherDisplay:10.37,2013-06-07 04:26:00,
2013-06-07 00:31:00,68.4,66.3,29.81,SSW,213,0.0,0.0,93,0.00,CLR,,0.00,WeatherDisplay:10.37,2013-06-07 04:31:00,
2013-06-07 00:36:00,68.0,66.2,29.80,SSW,213,0.0,0.0,94,0.00,CLR,,0.00,WeatherDisplay:10.37,2013-06-07 04:36:00,
2013-06-07 00:41:00,68.0,66.2,29.80,SSW,213,0.0,0.0,94,0.00,CLR,,0.00,WeatherDisplay:10.37,2013-06-07 04:41:00,
2013-06-07 00:46:00,68.0,66.2,29.80,SSW,213,0.0,0.0,94,0.00,CLR,,0.00,WeatherDisplay:10.37,2013-06-07 04:46:00,
2013-06-07 00:52:00,67.9,66.1,29.79,SSW,213,0.0,0.0,94,0.01,RA,,0.01,WeatherDisplay:10.37,2013-06-07 04:52:00,
2013-06-07 00:57:00,67.9,66.1,29.79,SSW,213,0.0,0.0,94,0.01,CLR,,0.01,WeatherDisplay:10.37,2013-06-07 04:57:00,
2013-06-07 01:02:00,68.0,66.2,29.80,SSW,213,0.0,0.0,94,0.00,CLR,,0.00,WeatherDisplay:10.37,2013-06-07 05:02:00,
2013-06-07 01:07:00,67.8,66.0,29.79,SSW,213,0.0,0.0,94,0.01,CLR,,0.01,WeatherDisplay:10.37,2013-06-07 05:07:00,
2013-06-07 01:12:00,67.8,66.0,29.79,SSW,213,0.0,0.0,94,0.01,CLR,,0.01,WeatherDisplay:10.37,2013-06-07 05:12:00,
2013-06-07 01:17:00,67.8,66.0,29.79,SSW,213,0.0,0.0,94,0.01,CLR,,0.01,WeatherDisplay:10.37,2013-06-07 05:17:00,
2013-06-07 01:22:00,67.7,66.2,29.78,SSW,213,0.0,0.0,95,0.01,RA,,0.01,WeatherDisplay:10.37,2013-06-07 05:22:00,
2013-06-07 01:27:00,67.7,66.2,29.78,SSW,213,0.0,0.0,95,0.01,RA,,0.01,WeatherDisplay:10.37,2013-06-07 05:27:00,
2013-06-07 01:32:00,67.7,66.2,29.78,SSW,213,0.0,0.0,95,0.01,,,0.01,WeatherDisplay:10.37,2013-06-07 05:32:00,
2013-06-07 01:37:00,67.6,66.1,29.78,SSW,213,0.0,0.0,95,0.03,RA,,0.03,WeatherDisplay:10.37,2013-06-07 05:37:00,
2013-06-07 01:42:00,67.6,66.1,29.78,SSW,213,0.0,0.0,95,0.03,,,0.04,WeatherDisplay:10.37,2013-06-07 05:42:00,
2013-06-07 01:47:00,67.5,66.0,29.77,SSW,213,0.0,0.0,95,0.04,RA,,0.05,WeatherDisplay:10.37,2013-06-07 05:47:00,
2013-06-07 01:52:00,67.5,66.0,29.77,SSW,213,0.0,0.0,95,0.05,RA,,0.06,WeatherDisplay:10.37,2013-06-07 05:52:00,
2013-06-07 01:57:00,67.5,66.0,29.77,SSW,213,0.0,0.0,95,0.06,RA,,0.07,WeatherDisplay:10.37,2013-06-07 05:57:00,
2013-06-07 02:02:00,67.4,65.9,29.76,SSW,213,0.0,0.0,95,0.07,RA,,0.08,WeatherDisplay:10.37,2013-06-07 06:02:00,
2013-06-07 02:07:00,67.3,65.8,29.76,SSW,213,0.0,0.0,95,0.08,RA,,0.09,WeatherDisplay:10.37,2013-06-07 06:07:00,
2013-06-07 02:12:00,67.4,65.9,29.76,SSW,213,0.0,0.0,95,0.09,RA,,0.09,WeatherDisplay:10.37,2013-06-07 06:12:00,
2013-06-07 02:17:00,67.3,65.8,29.76,SSW,213,0.0,0.0,95,0.10,RA,,0.10,WeatherDisplay:10.37,2013-06-07 06:17:00,
2013-06-07 02:22:00,67.3,65.8,29.76,SSW,213,0.0,0.0,95,0.10,RA,,0.11,WeatherDisplay:10.37,2013-06-07 06:22:00,
2013-06-07 02:27:00,67.4,65.9,29.76,SSW,213,0.0,0.0,95,0.07,CLR,,0.09,WeatherDisplay:10.37,2013-06-07 06:27:00,
2013-06-07 02:32:00,67.2,65.7,29.75,SSW,213,0.0,0.0,95,0.11,RA,,0.14,WeatherDisplay:10.37,2013-06-07 06:32:00,
2013-06-07 02:37:00,67.2,65.7,29.75,SSW,213,0.0,0.1,95,0.12,RA,,0.15,WeatherDisplay:10.37,2013-06-07 06:37:00,
2013-06-07 02:42:00,67.2,65.7,29.75,SSW,213,0.0,0.0,95,0.10,CLR,,0.13,WeatherDisplay:10.37,2013-06-07 06:42:00,
2013-06-07 02:47:00,67.1,65.6,29.74,SSW,213,0.0,0.0,95,0.10,,,0.15,WeatherDisplay:10.37,2013-06-07 06:47:00,
2013-06-07 02:52:00,67.1,65.6,29.74,SSW,213,0.0,0.0,95,0.09,CLR,,0.15,WeatherDisplay:10.37,2013-06-07 06:52:00,
2013-06-07 02:57:00,67.1,65.9,29.73,SSW,213,0.0,0.0,96,0.08,CLR,,0.15,WeatherDisplay:10.37,2013-06-07 06:57:00,
2013-06-07 03:02:00,67.2,65.7,29.75,SSW,213,0.0,0.0,95,0.10,CLR,,0.13,WeatherDisplay:10.37,2013-06-07 07:02:00,
2013-06-07 03:07:00,67.2,65.7,29.75,SSW,213,0.0,0.0,95,0.10,CLR,,0.13,WeatherDisplay:10.37,2013-06-07 07:07:00,
2013-06-07 03:12:00,67.2,65.7,29.75,SSW,213,0.0,0.0,95,0.04,CLR,,0.13,WeatherDisplay:10.37,2013-06-07 07:12:00,
2013-06-07 03:17:00,67.2,65.7,29.75,SSW,213,0.0,0.0,95,0.03,CLR,,0.13,WeatherDisplay:10.37,2013-06-07 07:17:00,
2013-06-07 03:22:00,67.0,65.8,29.72,SSW,213,0.0,0.0,96,0.07,CLR,,0.16,WeatherDisplay:10.37,2013-06-07 07:22:00,
2013-06-07 03:27:00,66.9,65.7,29.72,SSW,213,0.0,0.0,96,0.03,RA,,0.15,WeatherDisplay:10.37,2013-06-07 07:27:00,
2013-06-07 03:32:00,66.9,65.7,29.72,SSW,213,0.0,0.0,96,0.02,CLR,,0.16,WeatherDisplay:10.37,2013-06-07 07:32:00,
2013-06-07 03:37:00,67.0,65.8,29.72,SSW,213,0.0,0.0,96,0.03,RA,,0.16,WeatherDisplay:10.37,2013-06-07 07:37:00,
2013-06-07 03:42:00,67.0,65.8,29.71,SSW,213,0.0,0.0,96,0.03,,,0.16,WeatherDisplay:10.37,2013-06-07 07:42:00,
2013-06-07 03:47:00,66.9,65.7,29.72,SSW,213,0.0,0.0,96,0.01,CLR,,0.16,WeatherDisplay:10.37,2013-06-07 07:47:00,
2013-06-07 03:52:00,66.9,65.7,29.72,SSW,213,0.0,0.0,96,0.01,CLR,,0.16,WeatherDisplay:10.37,2013-06-07 07:52:00,
2013-06-07 03:57:00,67.0,65.8,29.71,SSW,213,0.0,0.0,96,0.03,CLR,,0.16,WeatherDisplay:10.37,2013-06-07 07:57:00,
2013-06-07 04:02:00,66.9,65.7,29.72,SSW,213,0.0,0.0,96,0.00,CLR,,0.16,WeatherDisplay:10.37,2013-06-07 08:02:00,
2013-06-07 04:07:00,66.9,65.7,29.72,SSW,213,0.0,0.0,96,0.00,CLR,,0.16,WeatherDisplay:10.37,2013-06-07 08:07:00,
2013-06-07 04:12:00,66.9,65.7,29.72,SSW,213,0.0,0.0,96,0.00,CLR,,0.16,WeatherDisplay:10.37,2013-06-07 08:12:00,
2013-06-07 04:17:00,67.0,65.8,29.70,NNE,20,3.8,4.6,96,0.03,CLR,,0.16,WeatherDisplay:10.37,2013-06-07 08:17:00,
2013-06-07 04:22:00,66.9,65.7,29.72,SSW,213,0.0,0.0,96,0.00,CLR,,0.16,WeatherDisplay:10.37,2013-06-07 08:22:00,
2013-06-07 04:27:00,67.0,65.8,29.70,ENE,58,0.0,0.0,96,0.01,CLR,,0.16,WeatherDisplay:10.37,2013-06-07 08:27:00,
2013-06-07 04:32:00,67.0,65.8,29.69,ENE,57,2.2,3.5,96,0.00,CLR,,0.16,WeatherDisplay:10.37,2013-06-07 08:32:00,
2013-06-07 04:37:00,67.1,65.9,29.69,ENE,57,2.3,4.6,96,0.00,CLR,,0.16,WeatherDisplay:10.37,2013-06-07 08:37:00,
2013-06-07 04:42:00,67.0,65.8,29.69,NE,36,1.7,3.5,96,0.00,CLR,,0.16,WeatherDisplay:10.37,2013-06-07 08:42:00,
2013-06-07 04:47:00,66.9,65.7,29.72,SSW,213,0.0,0.0,96,0.00,CLR,,0.16,WeatherDisplay:10.37,2013-06-07 08:47:00,
2013-06-07 04:52:00,67.0,65.8,29.69,NNE,12,2.3,3.5,96,0.00,CLR,,0.16,WeatherDisplay:10.37,2013-06-07 08:52:00,
2013-06-07 04:57:00,66.9,65.7,29.72,SSW,213,0.0,0.0,96,0.00,CLR,,0.16,WeatherDisplay:10.37,2013-06-07 08:57:00,
2013-06-07 05:02:00,67.0,65.8,29.69,NNE,28,0.0,0.0,96,0.00,CLR,,0.16,WeatherDisplay:10.37,2013-06-07 09:02:00,
2013-06-07 05:07:00,66.9,65.7,29.72,SSW,213,0.0,0.0,96,0.00,CLR,,0.16,WeatherDisplay:10.37,2013-06-07 09:07:00,
2013-06-07 05:12:00,66.9,65.7,29.72,SSW,213,0.0,0.0,96,0.00,CLR,,0.16,WeatherDisplay:10.37,2013-06-07 09:12:00,
2013-06-07 05:17:00,66.9,65.7,29.72,SSW,213,0.0,0.0,96,0.00,CLR,,0.16,WeatherDisplay:10.37,2013-06-07 09:17:00,
2013-06-07 05:22:00,66.9,65.7,29.72,SSW,213,0.0,0.0,96,0.00,CLR,,0.16,WeatherDisplay:10.37,2013-06-07 09:22:00,
2013-06-07 05:27:00,66.9,65.7,29.72,SSW,213,0.0,0.0,96,0.00,CLR,,0.16,WeatherDisplay:10.37,2013-06-07 09:27:00,
2013-06-07 05:32:00,66.9,65.7,29.72,SSW,213,0.0,0.0,96,0.00,CLR,,0.16,WeatherDisplay:10.37,2013-06-07 09:32:00,
2013-06-07 05:37:00,66.9,65.7,29.72,SSW,213,0.0,0.0,96,0.00,CLR,,0.16,WeatherDisplay:10.37,2013-06-07 09:37:00,
2013-06-07 05:42:00,66.9,65.7,29.72,SSW,213,0.0,0.0,96,0.00,CLR,,0.16,WeatherDisplay:10.37,2013-06-07 09:42:00,
2013-06-07 05:47:00,66.9,65.7,29.72,SSW,213,0.0,0.0,96,0.00,CLR,,0.16,WeatherDisplay:10.37,2013-06-07 09:47:00,
2013-06-07 05:52:00,66.9,65.7,29.68,NNE,22,1.8,3.5,96,0.01,,,0.17,WeatherDisplay:10.37,2013-06-07 09:52:00,
2013-06-07 05:57:00,66.9,65.7,29.72,SSW,213,0.0,0.0,96,0.00,CLR,,0.16,WeatherDisplay:10.37,2013-06-07 09:57:00,
2013-06-07 06:02:00,66.9,65.7,29.72,SSW,213,0.0,0.0,96,0.00,CLR,,0.16,WeatherDisplay:10.37,2013-06-07 10:02:00,
2013-06-07 06:07:00,66.9,65.7,29.72,SSW,213,0.0,0.0,96,0.00,CLR,,0.16,WeatherDisplay:10.37,2013-06-07 10:07:00,
2013-06-07 06:12:00,66.9,65.7,29.72,SSW,213,0.0,0.0,96,0.00,CLR,,0.16,WeatherDisplay:10.37,2013-06-07 10:12:00,
2013-06-07 06:17:00,66.9,65.7,29.72,SSW,213,0.0,0.0,96,0.00,CLR,,0.16,WeatherDisplay:10.37,2013-06-07 10:17:00,
2013-06-07 06:22:00,66.9,65.7,29.72,SSW,213,0.0,0.0,96,0.00,CLR,,0.16,WeatherDisplay:10.37,2013-06-07 10:22:00,
2013-06-07 06:27:00,66.9,65.7,29.68,NE,38,1.4,3.0,96,0.02,CLR,,0.18,WeatherDisplay:10.37,2013-06-07 10:27:00,
2013-06-07 06:32:00,66.9,65.7,29.72,SSW,213,0.0,0.0,96,0.00,CLR,,0.16,WeatherDisplay:10.37,2013-06-07 10:32:00,
2013-06-07 06:37:00,66.9,65.7,29.72,SSW,213,0.0,0.0,96,0.00,CLR,,0.16,WeatherDisplay:10.37,2013-06-07 10:37:00,
2013-06-07 06:42:00,66.9,65.7,29.68,NNE,19,1.9,3.5,96,0.01,CLR,,0.18,WeatherDisplay:10.37,2013-06-07 10:42:00,
2013-06-07 06:47:00,66.9,65.7,29.72,SSW,213,0.0,0.0,96,0.00,CLR,,0.16,WeatherDisplay:10.37,2013-06-07 10:47:00,
2013-06-07 06:52:00,67.0,65.8,29.67,NNE,28,3.2,4.6,96,0.01,CLR,,0.18,WeatherDisplay:10.37,2013-06-07 10:52:00,
2013-06-07 06:57:00,66.9,65.7,29.72,SSW,213,0.0,0.0,96,0.00,CLR,,0.16,WeatherDisplay:10.37,2013-06-07 10:57:00,
2013-06-07 07:02:00,67.0,65.8,29.67,NNW,345,4.0,4.0,96,0.03,RA,,0.19,WeatherDisplay:10.37,2013-06-07 11:02:00,
2013-06-07 07:07:00,67.1,65.9,29.67,NE,49,9.2,9.2,96,0.03,RA,,0.19,WeatherDisplay:10.37,2013-06-07 11:07:00,
2013-06-07 07:12:00,67.0,65.8,29.67,NE,49,3.8,4.6,96,0.00,CLR,,0.18,WeatherDisplay:10.37,2013-06-07 11:12:00,
2013-06-07 07:17:00,67.1,65.9,29.67,North,360,5.8,5.8,96,0.03,CLR,,0.19,WeatherDisplay:10.37,2013-06-07 11:17:00,
2013-06-07 07:22:00,67.2,66.0,29.67,NE,41,5.8,5.8,96,0.03,CLR,,0.19,WeatherDisplay:10.37,2013-06-07 11:22:00,
2013-06-07 07:27:00,67.2,66.0,29.67,NE,45,6.9,6.9,96,0.03,CLR,,0.19,WeatherDisplay:10.37,2013-06-07 11:27:00,
2013-06-07 07:32:00,67.0,65.8,29.67,NE,49,3.8,4.6,96,0.00,CLR,,0.18,WeatherDisplay:10.37,2013-06-07 11:32:00,
2013-06-07 07:37:00,67.2,66.0,29.67,North,5,4.5,6.9,96,0.00,CLR,,0.18,WeatherDisplay:10.37,2013-06-07 11:37:00,
2013-06-07 07:42:00,67.3,66.1,29.66,NNE,22,3.8,6.9,96,0.00,CLR,,0.18,WeatherDisplay:10.37,2013-06-07 11:42:00,
2013-06-07 07:47:00,67.2,66.0,29.67,North,5,4.6,4.6,96,0.03,CLR,,0.19,WeatherDisplay:10.37,2013-06-07 11:47:00,
2013-06-07 07:52:00,67.4,66.2,29.66,NE,35,4.7,9.2,96,0.00,CLR,,0.18,WeatherDisplay:10.37,2013-06-07 11:52:00,
2013-06-07 07:57:00,67.5,66.3,29.66,NE,41,3.7,4.0,96,0.00,CLR,,0.18,WeatherDisplay:10.37,2013-06-07 11:57:00,
2013-06-07 08:02:00,67.2,66.0,29.67,North,5,4.6,4.6,96,0.00,CLR,,0.19,WeatherDisplay:10.37,2013-06-07 12:02:00,
2013-06-07 08:07:00,67.6,66.4,29.66,NNE,18,2.2,2.3,96,0.00,CLR,,0.18,WeatherDisplay:10.37,2013-06-07 12:07:00,
2013-06-07 08:12:00,67.7,66.8,29.66,NNE,26,5.8,5.8,97,0.00,CLR,,0.19,WeatherDisplay:10.37,2013-06-07 12:12:00,
2013-06-07 08:17:00,67.8,66.9,29.66,NE,39,4.6,4.6,97,0.00,CLR,,0.19,WeatherDisplay:10.37,2013-06-07 12:17:00,
2013-06-07 08:22:00,67.8,66.9,29.66,North,355,10.4,10.4,97,0.00,CLR,,0.19,WeatherDisplay:10.37,2013-06-07 12:22:00,
2013-06-07 08:27:00,67.9,66.7,29.66,NNE,28,5.8,5.8,96,0.00,CLR,,0.19,WeatherDisplay:10.37,2013-06-07 12:27:00,
2013-06-07 08:32:00,68.0,66.8,29.66,NNE,33,3.5,4.5,96,0.00,CLR,,0.19,WeatherDisplay:10.37,2013-06-07 12:32:00,
2013-06-07 08:37:00,68.0,66.8,29.66,NNE,33,3.5,4.5,96,0.00,CLR,,0.19,WeatherDisplay:10.37,2013-06-07 12:37:00,
2013-06-07 08:42:00,68.0,66.8,29.66,NNE,33,3.5,4.5,96,0.00,CLR,,0.19,WeatherDisplay:10.37,2013-06-07 12:42:00,
2013-06-07 08:47:00,68.3,67.1,29.65,NNE,28,3.2,4.6,96,0.00,CLR,,0.18,WeatherDisplay:10.37,2013-06-07 12:47:00,
2013-06-07 08:52:00,68.0,66.8,29.66,NNE,33,3.5,4.5,96,0.00,CLR,,0.19,WeatherDisplay:10.37,2013-06-07 12:52:00,
2013-06-07 08:57:00,68.4,67.2,29.65,North,5,4.6,4.6,96,0.00,CLR,,0.19,WeatherDisplay:10.37,2013-06-07 12:57:00,
2013-06-07 09:02:00,68.4,67.2,29.65,NNE,28,5.6,5.8,96,0.00,CLR,,0.18,WeatherDisplay:10.37,2013-06-07 13:02:00,
2013-06-07 09:07:00,68.9,67.7,29.65,North,11,4.0,6.9,96,0.00,CLR,,0.18,WeatherDisplay:10.37,2013-06-07 13:07:00,
2013-06-07 09:12:00,69.0,67.8,29.66,NNE,17,3.6,10.4,96,0.00,CLR,,0.18,WeatherDisplay:10.37,2013-06-07 13:12:00,
2013-06-07 09:17:00,69.3,68.1,29.66,North,360,5.3,6.0,96,0.00,CLR,,0.18,WeatherDisplay:10.37,2013-06-07 13:17:00,
2013-06-07 09:22:00,69.4,68.2,29.66,NNE,17,4.1,4.1,96,0.00,CLR,,0.18,WeatherDisplay:10.37,2013-06-07 13:22:00,
2013-06-07 09:27:00,69.5,68.3,29.66,NE,36,4.5,4.6,96,0.00,CLR,,0.18,WeatherDisplay:10.37,2013-06-07 13:27:00,
2013-06-07 09:32:00,69.6,68.4,29.65,NNW,338,4.7,8.1,96,0.00,CLR,,0.18,WeatherDisplay:10.37,2013-06-07 13:32:00,
2013-06-07 09:37:00,69.9,68.4,29.65,North,360,3.3,4.6,95,0.00,CLR,,0.18,WeatherDisplay:10.37,2013-06-07 13:37:00,
2013-06-07 09:42:00,69.4,68.2,29.66,North,9,3.5,3.8,96,0.00,CLR,,0.19,WeatherDisplay:10.37,2013-06-07 13:42:00,
2013-06-07 09:47:00,70.3,68.5,29.65,NNE,29,3.9,9.2,94,0.00,CLR,,0.18,WeatherDisplay:10.37,2013-06-07 13:47:00,
2013-06-07 09:52:00,69.4,68.2,29.66,North,9,3.5,3.8,96,0.00,CLR,,0.19,WeatherDisplay:10.37,2013-06-07 13:52:00,
2013-06-07 09:57:00,71.0,68.6,29.65,NE,42,5.8,5.8,92,0.00,CLR,,0.19,WeatherDisplay:10.37,2013-06-07 13:57:00,
2013-06-07 10:02:00,70.7,68.6,29.65,NE,44,5.3,5.3,93,0.00,CLR,,0.18,WeatherDisplay:10.37,2013-06-07 14:02:00,
2013-06-07 10:08:00,70.7,68.6,29.65,NE,44,5.3,5.3,93,0.00,CLR,,0.18,WeatherDisplay:10.37,2013-06-07 14:08:00,
2013-06-07 10:13:00,71.9,69.1,29.64,NNE,19,9.0,9.0,91,0.00,CLR,,0.19,WeatherDisplay:10.37,2013-06-07 14:13:00,
2013-06-07 10:18:00,72.1,68.7,29.64,NE,38,9.2,9.2,89,0.00,CLR,,0.19,WeatherDisplay:10.37,2013-06-07 14:18:00,
2013-06-07 10:23:00,70.7,68.6,29.65,NE,44,5.3,5.3,93,0.00,CLR,,0.18,WeatherDisplay:10.37,2013-06-07 14:23:00,
2013-06-07 10:28:00,72.3,69.2,29.65,NNE,13,4.6,4.6,90,0.00,CLR,,0.19,WeatherDisplay:10.37,2013-06-07 14:28:00,
2013-06-07 10:33:00,72.4,69.0,29.65,North,5,9.2,9.2,89,0.00,CLR,,0.19,WeatherDisplay:10.37,2013-06-07 14:33:00,
2013-06-07 10:38:00,72.4,69.0,29.65,North,5,2.3,5.5,89,0.00,CLR,,0.19,WeatherDisplay:10.37,2013-06-07 14:38:00,
2013-06-07 10:43:00,72.4,69.0,29.65,North,5,2.3,5.5,89,0.00,CLR,,0.19,WeatherDisplay:10.37,2013-06-07 14:43:00,
2013-06-07 10:48:00,72.4,69.0,29.65,North,5,2.3,5.5,89,0.00,CLR,,0.19,WeatherDisplay:10.37,2013-06-07 14:48:00,
2013-06-07 10:53:00,72.1,68.7,29.65,NNE,17,3.2,4.6,89,0.00,CLR,,0.18,WeatherDisplay:10.37,2013-06-07 14:53:00,
2013-06-07 10:58:00,72.2,68.8,29.65,NE,41,2.2,3.5,89,0.00,CLR,,0.18,WeatherDisplay:10.37,2013-06-07 14:58:00,
2013-06-07 11:03:00,72.2,68.8,29.65,NNE,14,4.4,4.6,89,0.00,CLR,,0.18,WeatherDisplay:10.37,2013-06-07 15:03:00,
2013-06-07 11:08:00,72.3,68.5,29.65,NE,50,3.3,8.1,88,0.00,CLR,,0.18,WeatherDisplay:10.37,2013-06-07 15:08:00,
2013-06-07 11:13:00,72.4,69.0,29.65,North,5,2.3,5.5,89,0.00,CLR,,0.19,WeatherDisplay:10.37,2013-06-07 15:13:00,
2013-06-07 11:18:00,72.6,69.2,29.65,NNE,15,4.6,4.6,89,0.00,CLR,,0.19,WeatherDisplay:10.37,2013-06-07 15:18:00,
2013-06-07 11:23:00,72.5,69.1,29.65,NNE,18,4.2,4.2,89,0.00,CLR,,0.18,WeatherDisplay:10.37,2013-06-07 15:23:00,
2013-06-07 11:28:00,72.9,69.1,29.65,NNE,22,5.0,5.0,88,0.00,CLR,,0.19,WeatherDisplay:10.37,2013-06-07 15:28:00,
2013-06-07 11:33:00,72.5,69.1,29.65,NNE,18,4.2,4.2,89,0.00,CLR,,0.18,WeatherDisplay:10.37,2013-06-07 15:33:00,
2013-06-07 11:38:00,73.1,69.0,29.65,North,349,3.5,3.5,87,0.00,CLR,,0.19,WeatherDisplay:10.37,2013-06-07 15:38:00,
2013-06-07 11:43:00,73.3,69.2,29.65,NE,55,4.3,6.9,87,0.00,CLR,,0.18,WeatherDisplay:10.37,2013-06-07 15:43:00,
2013-06-07 11:48:00,73.3,68.9,29.65,NE,47,3.1,4.6,86,0.00,CLR,,0.18,WeatherDisplay:10.37,2013-06-07 15:48:00,
2013-06-07 11:53:00,73.2,69.1,29.65,NNE,19,3.5,3.5,87,0.00,CLR,,0.19,WeatherDisplay:10.37,2013-06-07 15:53:00,
2013-06-07 11:58:00,73.6,69.2,29.65,NE,47,3.7,6.9,86,0.00,CLR,,0.18,WeatherDisplay:10.37,2013-06-07 15:58:00,
2013-06-07 12:03:00,73.7,69.2,29.65,NE,45,3.3,5.8,86,0.00,CLR,,0.18,WeatherDisplay:10.37,2013-06-07 16:03:00,
2013-06-07 12:08:00,73.7,69.2,29.65,NE,45,3.3,3.5,86,0.00,CLR,,0.18,WeatherDisplay:10.37,2013-06-07 16:08:00,
2013-06-07 12:13:00,73.7,69.2,29.65,NE,45,3.3,3.5,86,0.00,CLR,,0.18,WeatherDisplay:10.37,2013-06-07 16:13:00,
2013-06-07 12:18:00,74.3,69.8,29.65,NNE,19,6.0,6.0,86,0.00,CLR,,0.19,WeatherDisplay:10.37,2013-06-07 16:18:00,
2013-06-07 12:23:00,74.4,69.6,29.65,NNE,12,1.2,4.6,85,0.00,CLR,,0.18,WeatherDisplay:10.37,2013-06-07 16:23:00,
2013-06-07 12:28:00,74.6,69.4,29.65,NNE,18,2.2,4.6,84,0.00,CLR,,0.18,WeatherDisplay:10.37,2013-06-07 16:28:00,
2013-06-07 12:33:00,74.3,69.5,29.65,North,350,5.8,5.8,85,0.00,CLR,,0.19,WeatherDisplay:10.37,2013-06-07 16:33:00,
2013-06-07 12:38:00,74.3,69.5,29.65,North,350,5.8,5.8,85,0.00,CLR,,0.19,WeatherDisplay:10.37,2013-06-07 16:38:00,
2013-06-07 12:43:00,74.3,69.5,29.65,North,350,5.8,5.8,85,0.00,CLR,,0.19,WeatherDisplay:10.37,2013-06-07 16:43:00,
2013-06-07 12:48:00,75.6,70.1,29.65,NNW,345,3.3,3.5,83,0.00,CLR,,0.18,WeatherDisplay:10.37,2013-06-07 16:48:00,
2013-06-07 12:53:00,76.0,70.1,29.65,NNW,342,2.5,5.8,82,0.00,CLR,,0.18,WeatherDisplay:10.37,2013-06-07 16:53:00,
2013-06-07 12:58:00,76.1,70.2,29.65,NNW,342,2.1,2.3,82,0.00,CLR,,0.18,WeatherDisplay:10.37,2013-06-07 16:58:00,
2013-06-07 13:03:00,76.7,70.1,29.65,NNW,334,5.8,5.8,80,0.00,CLR,,0.19,WeatherDisplay:10.37,2013-06-07 17:03:00,
2013-06-07 13:08:00,76.1,70.2,29.65,NNW,342,2.1,2.3,82,0.00,CLR,,0.18,WeatherDisplay:10.37,2013-06-07 17:08:00,
2013-06-07 13:13:00,77.3,69.9,29.65,NNW,328,4.6,4.6,78,0.00,CLR,,0.19,WeatherDisplay:10.37,2013-06-07 17:13:00,
2013-06-07 13:18:00,77.5,70.1,29.65,NNW,341,4.0,4.0,78,0.00,CLR,,0.19,WeatherDisplay:10.37,2013-06-07 17:18:00,
2013-06-07 13:23:00,77.8,70.0,29.65,NNW,342,4.6,4.6,77,0.00,CLR,,0.18,WeatherDisplay:10.37,2013-06-07 17:23:00,
2013-06-07 13:28:00,77.6,70.2,29.65,WNW,291,3.5,3.5,78,0.00,CLR,,0.19,WeatherDisplay:10.37,2013-06-07 17:28:00,
2013-06-07 13:33:00,78.2,70.0,29.65,North,11,4.0,4.0,76,0.00,CLR,,0.19,WeatherDisplay:10.37,2013-06-07 17:33:00,
2013-06-07 13:38:00,78.2,70.4,29.65,North,11,1.8,3.5,77,0.00,CLR,,0.18,WeatherDisplay:10.37,2013-06-07 17:38:00,
2013-06-07 13:43:00,78.7,70.9,29.64,NNW,343,3.5,3.5,77,0.00,CLR,,0.19,WeatherDisplay:10.37,2013-06-07 17:43:00,
2013-06-07 13:48:00,78.7,70.9,29.64,NNW,343,1.2,2.0,77,0.00,CLR,,0.19,WeatherDisplay:10.37,2013-06-07 17:48:00,
2013-06-07 13:53:00,79.4,71.2,29.64,NNW,341,0.0,4.6,76,0.00,CLR,,0.18,WeatherDisplay:10.37,2013-06-07 17:53:00,
2013-06-07 13:58:00,78.7,70.9,29.64,NNW,343,1.2,2.0,77,0.00,CLR,,0.19,WeatherDisplay:10.37,2013-06-07 17:58:00,
2013-06-07 14:03:00,80.0,72.1,29.65,West,281,3.5,3.5,77,0.00,CLR,,0.19,WeatherDisplay:10.37,2013-06-07 18:03:00,
2013-06-07 14:08:00,80.0,71.0,29.65,NW,306,2.4,3.5,74,0.00,CLR,,0.18,WeatherDisplay:10.37,2013-06-07 18:08:00,
2013-06-07 14:13:00,80.0,71.4,29.65,NW,322,1.1,0.0,75,0.00,CLR,,0.18,WeatherDisplay:10.37,2013-06-07 18:13:00,
2013-06-07 14:18:00,79.8,71.2,29.65,WSW,246,3.5,0.0,75,0.00,CLR,,0.19,WeatherDisplay:10.37,2013-06-07 18:18:00,
2013-06-07 14:23:00,80.0,71.4,29.65,NW,322,1.1,0.0,75,0.00,CLR,,0.18,WeatherDisplay:10.37,2013-06-07 18:23:00,
2013-06-07 14:29:00,79.3,71.1,29.65,West,279,9.2,9.2,76,0.00,CLR,,0.19,WeatherDisplay:10.37,2013-06-07 18:29:00,
2013-06-07 14:34:00,80.0,71.4,29.65,NW,322,1.1,0.0,75,0.00,CLR,,0.18,WeatherDisplay:10.37,2013-06-07 18:34:00,
2013-06-07 14:39:00,80.0,71.4,29.65,NW,322,1.1,0.0,75,0.00,CLR,,0.18,WeatherDisplay:10.37,2013-06-07 18:39:00,
2013-06-07 14:45:00,79.7,70.7,29.65,WNW,283,5.8,5.8,74,0.00,CLR,,0.19,WeatherDisplay:10.37,2013-06-07 18:45:00,
2013-06-07 14:50:00,79.7,70.7,29.65,WNW,283,5.8,5.8,74,0.00,CLR,,0.19,WeatherDisplay:10.37,2013-06-07 18:50:00,
2013-06-07 14:55:00,79.7,70.7,29.65,WNW,283,3.4,0.0,74,0.00,CLR,,0.18,WeatherDisplay:10.37,2013-06-07 18:55:00,
2013-06-07 15:00:00,80.3,70.9,29.65,WSW,252,11.5,11.5,73,0.00,CLR,,0.19,WeatherDisplay:10.37,2013-06-07 19:00:00,
2013-06-07 15:06:00,79.5,70.1,29.65,WSW,243,11.5,11.5,73,0.00,CLR,,0.19,WeatherDisplay:10.37,2013-06-07 19:06:00,
2013-06-07 15:11:00,78.4,70.6,29.65,WSW,248,8.1,8.1,77,0.00,CLR,,0.20,WeatherDisplay:10.37,2013-06-07 19:11:00,
2013-06-07 15:16:00,79.7,70.7,29.65,WNW,283,3.4,0.0,74,0.00,CLR,,0.18,WeatherDisplay:10.37,2013-06-07 19:16:00,
2013-06-07 15:21:00,79.7,70.7,29.65,WNW,283,3.4,0.0,74,0.00,CLR,,0.18,WeatherDisplay:10.37,2013-06-07 19:21:00,
2013-06-07 15:27:00,77.4,71.8,29.65,North,349,3.5,3.5,83,0.01,CLR,,0.20,WeatherDisplay:10.37,2013-06-07 19:27:00,
2013-06-07 15:32:00,77.5,71.9,29.65,North,349,1.2,0.0,83,0.01,CLR,,0.20,WeatherDisplay:10.37,2013-06-07 19:32:00,
2013-06-07 15:37:00,79.7,70.7,29.65,WNW,283,3.4,0.0,74,0.00,CLR,,0.18,WeatherDisplay:10.37,2013-06-07 19:37:00,
2013-06-07 15:43:00,78.3,73.1,29.65,North,350,2.3,2.3,84,0.01,CLR,,0.20,WeatherDisplay:10.37,2013-06-07 19:43:00,
2013-06-07 15:48:00,78.7,70.9,29.65,West,275,7.3,9.2,77,0.01,RA,,0.19,WeatherDisplay:10.37,2013-06-07 19:48:00,
2013-06-07 15:53:00,78.4,72.4,29.65,WSW,252,4.6,4.6,82,0.01,CLR,,0.20,WeatherDisplay:10.37,2013-06-07 19:53:00,
2013-06-07 15:58:00,79.4,71.2,29.65,West,260,3.4,6.0,76,0.01,CLR,,0.19,WeatherDisplay:10.37,2013-06-07 19:58:00,
2013-06-07 16:04:00,79.9,70.9,29.65,West,273,6.9,6.9,74,0.01,CLR,,0.20,WeatherDisplay:10.37,2013-06-07 20:04:00,
2013-06-07 16:09:00,79.6,71.0,29.65,West,265,6.9,6.9,75,0.01,CLR,,0.19,WeatherDisplay:10.37,2013-06-07 20:09:00,
2013-06-07 16:14:00,80.5,71.4,29.65,SW,235,11.5,11.5,74,0.00,CLR,,0.20,WeatherDisplay:10.37,2013-06-07 20:14:00,
2013-06-07 16:19:00,79.6,71.0,29.65,West,265,6.9,6.9,75,0.01,CLR,,0.19,WeatherDisplay:10.37,2013-06-07 20:19:00,
2013-06-07 16:24:00,81.1,70.8,29.65,SW,232,9.2,9.2,71,0.00,CLR,,0.20,WeatherDisplay:10.37,2013-06-07 20:24:00,
2013-06-07 16:29:00,81.1,70.8,29.65,SW,232,9.2,9.2,71,0.00,CLR,,0.20,WeatherDisplay:10.37,2013-06-07 20:29:00,
2013-06-07 16:34:00,81.1,70.8,29.65,SW,232,9.2,9.2,71,0.00,CLR,,0.20,WeatherDisplay:10.37,2013-06-07 20:34:00,
2013-06-07 16:39:00,82.1,71.8,29.65,West,281,9.2,9.2,71,0.00,CLR,,0.20,WeatherDisplay:10.37,2013-06-07 20:39:00,
2013-06-07 16:44:00,81.8,71.1,29.65,West,262,4.3,4.6,70,0.01,CLR,,0.19,WeatherDisplay:10.37,2013-06-07 20:44:00,
2013-06-07 16:50:00,81.9,71.6,29.65,West,280,5.0,5.0,71,0.00,CLR,,0.20,WeatherDisplay:10.37,2013-06-07 20:50:00,
2013-06-07 16:55:00,81.8,71.1,29.65,West,262,4.3,4.6,70,0.00,CLR,,0.19,WeatherDisplay:10.37,2013-06-07 20:55:00,
2013-06-07 17:00:00,82.0,70.4,29.65,West,267,5.0,5.0,68,0.00,CLR,,0.19,WeatherDisplay:10.37,2013-06-07 21:00:00,
2013-06-07 17:05:00,81.9,71.2,29.65,WNW,284,2.4,10.4,70,0.00,CLR,,0.19,WeatherDisplay:10.37,2013-06-07 21:05:00,
2013-06-07 17:10:00,81.9,71.2,29.65,WNW,284,2.4,10.4,70,0.00,CLR,,0.19,WeatherDisplay:10.37,2013-06-07 21:10:00,
2013-06-07 17:15:00,81.7,70.5,29.66,West,264,11.5,11.5,69,0.00,CLR,,0.20,WeatherDisplay:10.37,2013-06-07 21:15:00,
2013-06-07 17:21:00,81.7,71.0,29.67,West,279,6.9,6.9,70,0.00,CLR,,0.20,WeatherDisplay:10.37,2013-06-07 21:21:00,
2013-06-07 17:26:00,81.7,71.0,29.67,West,260,3.5,4.8,70,0.00,CLR,,0.20,WeatherDisplay:10.37,2013-06-07 21:26:00,
2013-06-07 17:31:00,81.8,70.6,29.67,West,281,4.6,9.0,69,0.00,CLR,,0.19,WeatherDisplay:10.37,2013-06-07 21:31:00,
2013-06-07 17:37:00,81.5,70.8,29.67,West,267,0.7,3.0,70,0.00,CLR,,0.19,WeatherDisplay:10.37,2013-06-07 21:37:00,
2013-06-07 17:42:00,81.4,69.8,29.67,WSW,245,2.6,2.6,68,0.00,CLR,,0.19,WeatherDisplay:10.37,2013-06-07 21:42:00,
2013-06-07 17:47:00,81.4,69.8,29.67,WSW,245,2.6,2.6,68,0.00,CLR,,0.19,WeatherDisplay:10.37,2013-06-07 21:47:00,
2013-06-07 17:52:00,80.3,71.6,29.67,West,267,0.0,0.0,75,0.00,CLR,,0.20,WeatherDisplay:10.37,2013-06-07 21:52:00,
2013-06-07 17:58:00,81.4,69.8,29.67,WSW,245,2.6,2.6,68,0.00,CLR,,0.19,WeatherDisplay:10.37,2013-06-07 21:58:00,
2013-06-07 18:03:00,81.4,69.8,29.67,WSW,245,2.6,2.6,68,0.00,CLR,,0.19,WeatherDisplay:10.37,2013-06-07 22:03:00,
2013-06-07 18:08:00,81.4,69.8,29.67,WSW,245,2.6,2.6,68,0.00,CLR,,0.19,WeatherDisplay:10.37,2013-06-07 22:08:00,
2013-06-07 18:13:00,79.8,70.0,29.68,NW,310,0.0,0.0,72,0.00,CLR,,0.20,WeatherDisplay:10.37,2013-06-07 22:13:00,
2013-06-07 18:18:00,79.6,70.6,29.68,West,271,0.0,0.0,74,0.00,CLR,,0.20,WeatherDisplay:10.37,2013-06-07 22:18:00,
2013-06-07 18:23:00,81.4,69.8,29.67,WSW,245,2.6,2.6,68,0.00,CLR,,0.19,WeatherDisplay:10.37,2013-06-07 22:23:00,
2013-06-07 18:29:00,79.1,71.3,29.69,WNW,302,0.0,0.0,77,0.00,CLR,,0.20,WeatherDisplay:10.37,2013-06-07 22:29:00,
2013-06-07 18:34:00,81.4,69.8,29.67,WSW,245,2.6,2.6,68,0.00,CLR,,0.19,WeatherDisplay:10.37,2013-06-07 22:34:00,
2013-06-07 18:39:00,81.4,69.8,29.67,WSW,245,2.6,2.6,68,0.00,CLR,,0.19,WeatherDisplay:10.37,2013-06-07 22:39:00,
2013-06-07 18:44:00,81.4,69.8,29.67,WSW,245,2.6,2.6,68,0.00,CLR,,0.19,WeatherDisplay:10.37,2013-06-07 22:44:00,
2013-06-07 18:50:00,75.4,69.5,29.69,WSW,240,6.9,6.9,82,0.02,RA,,0.22,WeatherDisplay:10.37,2013-06-07 22:50:00,
2013-06-07 18:56:00,75.4,69.5,29.69,WSW,240,3.5,4.0,82,0.02,RA,,0.22,WeatherDisplay:10.37,2013-06-07 22:56:00,
2013-06-07 19:01:00,73.3,69.2,29.70,SW,218,4.7,5.8,87,0.02,,,0.21,WeatherDisplay:10.37,2013-06-07 23:01:00,
2013-06-07 19:06:00,72.7,68.9,29.70,South,177,0.8,2.3,88,0.02,CLR,,0.21,WeatherDisplay:10.37,2013-06-07 23:06:00,
2013-06-07 19:12:00,75.4,69.5,29.69,WSW,240,3.5,4.0,82,0.02,CLR,,0.22,WeatherDisplay:10.37,2013-06-07 23:12:00,
2013-06-07 19:17:00,72.0,68.9,29.72,WNW,287,0.2,2.0,90,0.02,CLR,,0.21,WeatherDisplay:10.37,2013-06-07 23:17:00,
2013-06-07 19:22:00,71.7,68.6,29.72,West,269,1.9,4.0,90,0.02,CLR,,0.21,WeatherDisplay:10.37,2013-06-07 23:22:00,
2013-06-07 19:27:00,71.4,68.6,29.72,WSW,244,3.4,4.6,91,0.03,RA,,0.22,WeatherDisplay:10.37,2013-06-07 23:27:00,
2013-06-07 19:32:00,75.4,69.5,29.69,WSW,240,3.5,4.0,82,0.01,CLR,,0.22,WeatherDisplay:10.37,2013-06-07 23:32:00,
2013-06-07 19:38:00,71.3,68.5,29.72,SW,227,3.0,3.5,91,0.03,,,0.22,WeatherDisplay:10.37,2013-06-07 23:38:00,
2013-06-07 19:43:00,70.9,68.1,29.73,SW,233,3.5,3.5,91,0.05,RA,,0.26,WeatherDisplay:10.37,2013-06-07 23:43:00,
2013-06-07 19:48:00,70.6,67.8,29.73,SSE,164,0.4,1.2,91,0.08,RA,,0.27,WeatherDisplay:10.37,2013-06-07 23:48:00,
2013-06-07 19:54:00,70.4,67.6,29.73,SE,125,0.1,0.0,91,0.08,RA,,0.29,WeatherDisplay:10.37,2013-06-07 23:54:00,
2013-06-07 19:59:00,70.0,67.3,29.74,SW,228,2.3,0.0,91,0.10,RA,,0.32,WeatherDisplay:10.37,2013-06-07 23:59:00,
2013-06-07 20:04:00,69.7,67.0,29.74,ESE,114,0.0,0.0,91,0.11,RA,,0.33,WeatherDisplay:10.37,2013-06-08 00:04:00,
2013-06-07 20:09:00,70.2,67.4,29.74,SW,217,0.6,0.0,91,0.09,CLR,,0.30,WeatherDisplay:10.37,2013-06-08 00:09:00,
2013-06-07 20:15:00,69.2,66.5,29.74,South,186,0.0,0.0,91,0.12,RA,,0.34,WeatherDisplay:10.37,2013-06-08 00:15:00,
2013-06-07 20:20:00,69.2,66.5,29.74,South,186,0.0,0.0,91,0.12,,,0.34,WeatherDisplay:10.37,2013-06-08 00:20:00,
2013-06-07 20:25:00,68.8,66.1,29.74,WSW,254,0.0,0.0,91,0.12,,,0.33,WeatherDisplay:10.37,2013-06-08 00:25:00,
2013-06-07 20:31:00,68.5,65.8,29.74,SW,220,0.0,0.3,91,0.12,CLR,,0.34,WeatherDisplay:10.37,2013-06-08 00:31:00,
2013-06-07 20:36:00,68.4,65.7,29.75,ESE,106,0.0,0.0,91,0.10,CLR,,0.34,WeatherDisplay:10.37,2013-06-08 00:36:00,
2013-06-07 20:41:00,68.8,66.1,29.74,WSW,254,0.0,0.0,91,0.11,CLR,,0.33,WeatherDisplay:10.37,2013-06-08 00:41:00,
2013-06-07 20:46:00,68.1,65.7,29.75,SW,215,2.3,2.3,92,0.08,CLR,,0.34,WeatherDisplay:10.37,2013-06-08 00:46:00,
2013-06-07 20:51:00,67.9,65.5,29.75,WSW,243,2.3,3.5,92,0.05,CLR,,0.33,WeatherDisplay:10.37,2013-06-08 00:51:00,
2013-06-07 20:57:00,68.1,65.7,29.75,SW,215,2.3,2.3,92,0.03,CLR,,0.34,WeatherDisplay:10.37,2013-06-08 00:57:00,
2013-06-07 21:02:00,67.7,65.6,29.76,WSW,242,2.5,2.5,93,0.03,CLR,,0.33,WeatherDisplay:10.37,2013-06-08 01:02:00,
2013-06-07 21:07:00,67.7,65.6,29.76,WSW,242,2.5,2.5,93,0.03,CLR,,0.33,WeatherDisplay:10.37,2013-06-08 01:07:00,
2013-06-07 21:12:00,67.5,65.4,29.77,WSW,242,0.0,0.0,93,0.00,CLR,,0.34,WeatherDisplay:10.37,2013-06-08 01:12:00,
2013-06-07 21:18:00,67.5,65.7,29.77,WSW,242,2.5,3.5,94,0.00,CLR,,0.33,WeatherDisplay:10.37,2013-06-08 01:18:00,
2013-06-07 21:23:00,67.5,65.4,29.77,WSW,242,0.0,0.0,93,0.00,CLR,,0.34,WeatherDisplay:10.37,2013-06-08 01:23:00,
2013-06-07 21:28:00,67.4,65.6,29.78,WSW,242,2.9,3.5,94,0.00,CLR,,0.33,WeatherDisplay:10.37,2013-06-08 01:28:00,
2013-06-07 21:33:00,67.4,65.6,29.79,WSW,242,0.0,2.3,94,0.00,CLR,,0.33,WeatherDisplay:10.37,2013-06-08 01:33:00,
2013-06-07 21:38:00,67.4,65.6,29.79,WSW,242,0.1,0.0,94,0.00,CLR,,0.33,WeatherDisplay:10.37,2013-06-08 01:38:00,
2013-06-07 21:43:00,67.4,65.6,29.80,WSW,242,3.3,3.5,94,0.00,CLR,,0.33,WeatherDisplay:10.37,2013-06-08 01:43:00,
2013-06-07 21:48:00,67.4,65.6,29.80,SSW,197,4.6,4.6,94,0.01,RA,,0.35,WeatherDisplay:10.37,2013-06-08 01:48:00,
2013-06-07 21:54:00,67.4,65.6,29.79,West,259,2.3,2.3,94,0.02,RA,,0.36,WeatherDisplay:10.37,2013-06-08 01:54:00,
2013-06-07 21:59:00,67.4,65.6,29.80,WSW,242,3.3,3.5,94,0.00,CLR,,0.33,WeatherDisplay:10.37,2013-06-08 01:59:00,
2013-06-07 22:05:00,67.3,65.5,29.80,WSW,242,5.0,5.0,94,0.04,RA,,0.38,WeatherDisplay:10.37,2013-06-08 02:05:00,
2013-06-07 22:10:00,67.4,65.6,29.80,WSW,242,3.3,3.5,94,0.00,CLR,,0.33,WeatherDisplay:10.37,2013-06-08 02:10:00,
2013-06-07 22:15:00,67.4,65.6,29.80,WSW,242,3.3,3.5,94,0.00,CLR,,0.33,WeatherDisplay:10.37,2013-06-08 02:15:00,
2013-06-07 22:21:00,67.4,65.6,29.80,WSW,242,3.3,3.5,94,0.00,CLR,,0.33,WeatherDisplay:10.37,2013-06-08 02:21:00,
2013-06-07 22:27:00,67.4,65.6,29.80,WSW,242,3.3,3.5,94,0.00,CLR,,0.33,WeatherDisplay:10.37,2013-06-08 02:27:00,
2013-06-07 22:33:00,67.4,65.6,29.80,WSW,242,3.3,3.5,94,0.00,CLR,,0.33,WeatherDisplay:10.37,2013-06-08 02:33:00,
2013-06-07 22:38:00,67.4,65.9,29.82,WSW,246,5.0,5.0,95,0.08,RA,,0.42,WeatherDisplay:10.37,2013-06-08 02:38:00,
2013-06-07 22:43:00,67.4,65.9,29.83,SW,236,5.8,5.8,95,0.08,,,0.42,WeatherDisplay:10.37,2013-06-08 02:43:00,
2013-06-07 22:49:00,67.4,65.9,29.83,SW,236,3.5,3.5,95,0.08,RA,,0.43,WeatherDisplay:10.37,2013-06-08 02:49:00,
2013-06-07 22:54:00,67.4,65.9,29.83,SW,236,4.6,4.6,95,0.08,RA,,0.44,WeatherDisplay:10.37,2013-06-08 02:54:00,
2013-06-07 22:59:00,67.4,65.9,29.82,SW,236,0.0,0.0,95,0.07,RA,,0.44,WeatherDisplay:10.37,2013-06-08 02:59:00,
2013-06-07 23:05:00,67.4,65.9,29.83,SW,236,2.8,3.5,95,0.09,CLR,,0.42,WeatherDisplay:10.37,2013-06-08 03:05:00,
2013-06-07 23:10:00,67.4,65.9,29.82,SW,236,0.0,0.0,95,0.05,CLR,,0.44,WeatherDisplay:10.37,2013-06-08 03:10:00,
2013-06-07 23:16:00,67.4,65.9,29.83,SW,236,2.8,3.5,95,0.09,CLR,,0.42,WeatherDisplay:10.37,2013-06-08 03:16:00,
2013-06-07 23:21:00,67.4,65.9,29.82,SW,236,0.0,0.0,95,0.03,CLR,,0.44,WeatherDisplay:10.37,2013-06-08 03:21:00,
2013-06-07 23:26:00,67.4,65.9,29.81,SW,236,0.0,0.0,95,0.03,CLR,,0.44,WeatherDisplay:10.37,2013-06-08 03:26:00,
2013-06-07 23:31:00,67.4,65.9,29.81,SW,236,0.0,0.0,95,0.03,CLR,,0.44,WeatherDisplay:10.37,2013-06-08 03:31:00,
2013-06-07 23:36:00,67.4,65.9,29.83,SW,236,2.8,3.5,95,0.09,CLR,,0.42,WeatherDisplay:10.37,2013-06-08 03:36:00,
2013-06-07 23:41:00,67.4,65.9,29.83,SW,236,2.8,3.5,95,0.09,CLR,,0.42,WeatherDisplay:10.37,2013-06-08 03:41:00,
2013-06-07 23:47:00,67.4,65.9,29.83,SW,236,2.8,3.5,95,0.09,CLR,,0.42,WeatherDisplay:10.37,2013-06-08 03:47:00,
2013-06-07 23:53:00,67.4,65.9,29.83,SW,236,2.8,3.5,95,0.00,CLR,,0.42,WeatherDisplay:10.37,2013-06-08 03:53:00,
2013-06-07 23:58:00,67.4,65.9,29.83,SW,236,2.8,3.5,95,0.00,CLR,,0.42,WeatherDisplay:10.37,2013-06-08 03:58:00,